SBCT METAR and TAF | Updated Today

SBCT METAR

Afonso Pena Airport

Observation time: 42 min. ago

SBCT 200700Z 00000KT CAVOK 04/03 Q1021

Need help? Read our tutorial on how to read METARs or read the parsed version below.

Afonso Pena Airport (SBCT) METAR

  • Weather conditions on Fri, 20 May 2022 07:00:00 +0000 (42 min. ago):
  • Present conditions: Dry
  • Clouds: Clear skies
  • Visibility: Greater than 10 km
  • Wind: Calm
  • Temperature: 4 celsius
  • Dew point: 3 celsius
  • Pressure: 1021 millibars
  • Remarks: None


Useful to know...

SBCT TAF

Afonso Pena Airport

TAF SBCT 200300Z 2006/2106 34004KT CAVOK TN05/2008Z TX16/2017Z RMK PEL
Observation time: 4:42 hr. ago
Need help? Read our tutorial on how to read TAFs or read the parsed version below.

Parsed version of TAF for Afonso Pena Airport (SBCT)

  • From 20 May at 06:00 UTC, to day 21 of the month at 06:00 UTC
  • Visibility: Greater than 10 km
  • Wind: 340 degrees at 4